Time;durP1;ratioP1;P1;durP2;ratioP2;P2;SDS_P1;SDS_P2;PMS_P1;PMS_P2;Temp;Humidity;BMP_temperature;BMP_pressure;BME280_temperature;BME280_humidity;BME280_pressure;Samples;Min_cycle;Max_cycle;Signal;HPM_P1;HPM_P2
2022/01/24 00:01:21;;;;;;;43.63;24.95;;;1.90;99.90;;;;;;4937127;29;20579;-89
2022/01/24 00:03:46;;;;;;;43.13;25.00;;;1.80;99.90;;;;;;4921549;29;20028;-89
2022/01/24 00:06:15;;;;;;;42.35;23.38;;;1.80;99.90;;;;;;4936386;29;20031;-88
2022/01/24 00:08:41;;;;;;;43.03;25.98;;;1.70;99.90;;;;;;4937100;29;20109;-89
2022/01/24 00:11:11;;;;;;;44.03;24.30;;;1.70;99.90;;;;;;4936542;29;20056;-89
2022/01/24 00:16:22;;;;;;;42.58;23.73;;;1.80;99.90;;;;;;4936733;29;20490;-89
2022/01/24 00:26:49;;;;;;;44.60;24.00;;;1.50;99.90;;;;;;4936772;29;20051;-89
2022/01/24 00:29:18;;;;;;;45.50;25.83;;;1.50;99.90;;;;;;4936136;29;20414;-90
2022/01/24 00:31:44;;;;;;;49.55;26.60;;;1.50;99.90;;;;;;4936614;29;20102;-88
2022/01/24 00:34:10;;;;;;;50.55;25.77;;;1.50;99.90;;;;;;4936356;29;20027;-89
2022/01/24 00:36:37;;;;;;;50.47;26.02;;;1.50;99.90;;;;;;4935586;29;20047;-89
2022/01/24 00:39:04;;;;;;;46.88;25.60;;;1.60;99.90;;;;;;4936604;29;20031;-89
2022/01/24 00:41:35;;;;;;;53.13;26.73;;;1.60;99.90;;;;;;4936117;29;20035;-89
2022/01/24 00:46:42;;;;;;;47.72;26.02;;;1.70;99.90;;;;;;4936103;29;20031;-89
2022/01/24 00:54:52;;;;;;;52.47;25.42;;;1.70;99.90;;;;;;4921033;29;20039;-89
2022/01/24 00:57:21;;;;;;;56.33;26.38;;;1.70;99.90;;;;;;4932994;29;20031;-89
2022/01/24 00:59:48;;;;;;;53.30;25.45;;;1.40;99.90;;;;;;4934913;29;20032;-89
2022/01/24 01:02:14;;;;;;;51.88;25.75;;;1.30;99.90;;;;;;4934788;29;20508;-89
2022/01/24 01:05:09;;;;;;;59.63;27.23;;;1.30;99.90;;;;;;4935195;29;20477;-88
2022/01/24 01:07:36;;;;;;;58.60;25.95;;;1.60;99.90;;;;;;4935533;29;20028;-89
2022/01/24 01:18:18;;;;;;;53.00;26.08;;;1.20;99.90;;;;;;4932540;29;20082;-89
2022/01/24 01:23:29;;;;;;;48.22;24.92;;;1.50;99.90;;;;;;4934819;29;20032;-89
2022/01/24 01:25:56;;;;;;;49.13;25.25;;;1.90;99.90;;;;;;4935484;29;20445;-89
2022/01/24 01:28:23;;;;;;;52.60;25.38;;;1.50;99.90;;;;;;4934540;29;20031;-89
2022/01/24 01:30:52;;;;;;;43.97;23.38;;;1.60;99.90;;;;;;4920181;29;20067;-89
2022/01/24 01:33:32;;;;;;;49.33;25.08;;;2.10;99.90;;;;;;4931581;29;20032;-87
2022/01/24 01:57:22;;;;;;;56.65;25.63;;;1.90;99.90;;;;;;4935228;29;20027;-88
2022/01/24 01:59:48;;;;;;;73.85;26.65;;;1.90;99.90;;;;;;4933804;29;20034;-88
2022/01/24 02:02:14;;;;;;;58.28;27.50;;;1.90;99.90;;;;;;4934751;29;20035;-89
2022/01/24 02:04:40;;;;;;;66.40;26.65;;;1.70;99.90;;;;;;4934773;29;20027;-88
2022/01/24 02:07:10;;;;;;;84.82;27.00;;;1.80;99.90;;;;;;4934843;29;20040;-89
2022/01/24 02:09:40;;;;;;;59.38;26.67;;;1.70;99.90;;;;;;4933911;29;20034;-89
2022/01/24 02:12:06;;;;;;;55.42;25.17;;;1.80;99.90;;;;;;4935199;29;20042;-89
2022/01/24 02:14:36;;;;;;;60.63;26.40;;;1.70;99.90;;;;;;4935209;29;20063;-88
2022/01/24 02:17:08;;;;;;;61.58;27.08;;;1.70;99.90;;;;;;4934595;29;20056;-88
2022/01/24 02:20:03;;;;;;;61.22;27.25;;;1.70;99.90;;;;;;4934806;29;20031;-88
2022/01/24 02:25:05;;;;;;;82.90;27.17;;;1.80;99.90;;;;;;4919719;29;20030;-89
2022/01/24 02:27:42;;;;;;;73.03;26.17;;;1.70;99.90;;;;;;4932576;29;20028;-89
2022/01/24 02:32:41;;;;;;;60.05;27.48;;;1.70;99.90;;;;;;4934428;29;20532;-89
2022/01/24 02:35:08;;;;;;;78.38;28.02;;;1.60;99.90;;;;;;4935475;29;20094;-89
2022/01/24 02:37:34;;;;;;;74.13;27.52;;;1.40;99.90;;;;;;4937937;29;20023;-89
2022/01/24 02:40:08;;;;;;;89.30;27.60;;;1.20;99.90;;;;;;4936959;29;20561;-89
2022/01/24 02:48:25;;;;;;;60.90;26.02;;;1.30;99.90;;;;;;4937436;29;20114;-88
2022/01/24 02:53:46;;;;;;;129.18;28.38;;;1.30;99.90;;;;;;4938289;29;20027;-88
2022/01/24 02:56:11;;;;;;;64.43;27.63;;;1.30;99.90;;;;;;4937153;29;20032;-88
2022/01/24 02:58:37;;;;;;;93.43;27.77;;;1.20;99.90;;;;;;4936921;29;20107;-88
2022/01/24 03:01:06;;;;;;;154.65;29.17;;;1.20;99.90;;;;;;4937489;29;20135;-89
2022/01/24 03:03:33;;;;;;;196.25;30.98;;;1.00;99.90;;;;;;4937948;29;20050;-89
2022/01/24 03:05:59;;;;;;;133.10;30.50;;;1.20;99.90;;;;;;4936797;29;20040;-89
2022/01/24 03:08:25;;;;;;;94.32;28.73;;;1.20;99.90;;;;;;4938102;29;20024;-88
2022/01/24 03:10:52;;;;;;;106.88;27.60;;;1.30;99.90;;;;;;4937500;29;20523;-88
2022/01/24 03:15:52;;;;;;;86.70;26.38;;;1.30;99.90;;;;;;4922707;29;20219;-88
2022/01/24 03:18:18;;;;;;;218.05;29.15;;;1.40;99.90;;;;;;4936849;29;20114;-89
2022/01/24 03:20:45;;;;;;;119.50;27.58;;;1.40;99.90;;;;;;4936958;29;20519;-88
2022/01/24 03:23:15;;;;;;;80.00;28.02;;;1.10;99.90;;;;;;4936358;29;20091;-88
2022/01/24 03:25:41;;;;;;;156.85;27.35;;;1.20;99.90;;;;;;4937746;29;20131;-88
2022/01/24 03:28:08;;;;;;;94.88;26.98;;;1.10;99.90;;;;;;4938084;29;20020;-88
2022/01/24 03:30:35;;;;;;;140.85;28.92;;;1.20;99.90;;;;;;4937242;29;20031;-89
2022/01/24 03:33:02;;;;;;;97.05;28.65;;;1.10;99.90;;;;;;4936752;29;20035;-88
2022/01/24 03:35:28;;;;;;;110.05;27.25;;;1.10;99.90;;;;;;4936165;29;20405;-88
2022/01/24 03:37:54;;;;;;;66.90;27.38;;;1.30;99.90;;;;;;4937260;29;20038;-89
2022/01/24 03:40:19;;;;;;;156.10;27.40;;;1.00;99.90;;;;;;4936160;29;20024;-88
2022/01/24 03:42:45;;;;;;;74.95;26.38;;;1.10;99.90;;;;;;4935931;29;20046;-88
2022/01/24 03:45:12;;;;;;;116.60;25.75;;;1.70;99.90;;;;;;4937376;29;20042;-89
2022/01/24 03:50:07;;;;;;;68.00;26.42;;;1.20;99.90;;;;;;4936882;29;20039;-87
2022/01/24 03:52:32;;;;;;;85.50;26.52;;;1.30;99.90;;;;;;4938417;29;20028;-89
2022/01/24 03:55:00;;;;;;;130.93;25.77;;;1.10;99.90;;;;;;4937118;29;20389;-88
2022/01/24 03:57:26;;;;;;;148.40;25.98;;;1.10;99.90;;;;;;4937226;29;20400;-88
2022/01/24 03:59:52;;;;;;;94.07;23.73;;;0.70;99.90;;;;;;4933750;29;20063;-88
2022/01/24 04:02:21;;;;;;;208.70;26.13;;;0.70;99.90;;;;;;4948424;29;20090;-89
2022/01/24 04:04:46;;;;;;;177.70;25.45;;;0.60;99.90;;;;;;4936602;29;20023;-89
2022/01/24 04:07:12;;;;;;;144.60;24.02;;;0.50;99.90;;;;;;4936698;29;20082;-88
2022/01/24 04:09:40;;;;;;;59.22;23.75;;;0.60;99.90;;;;;;4936609;29;20035;-89
2022/01/24 04:12:07;;;;;;;81.95;24.23;;;0.80;99.90;;;;;;4937096;29;20036;-89
2022/01/24 04:22:26;;;;;;;60.05;22.60;;;0.90;99.90;;;;;;4936414;29;20031;-88
2022/01/24 04:24:59;;;;;;;51.15;23.08;;;0.70;99.90;;;;;;4936382;29;20035;-89
2022/01/24 04:27:25;;;;;;;49.58;22.20;;;0.70;99.90;;;;;;4936694;29;20031;-88
2022/01/24 04:29:51;;;;;;;46.03;22.58;;;0.80;99.90;;;;;;4935315;29;20400;-89
2022/01/24 04:32:18;;;;;;;55.30;23.23;;;1.20;99.90;;;;;;4935123;29;20175;-89
2022/01/24 04:34:44;;;;;;;65.43;23.98;;;0.90;99.90;;;;;;4935169;29;20039;-89
2022/01/24 04:37:09;;;;;;;56.17;23.60;;;1.40;99.90;;;;;;4935468;29;20042;-88
2022/01/24 04:39:35;;;;;;;45.13;23.48;;;1.00;99.90;;;;;;4936283;29;20027;-89
2022/01/24 04:42:08;;;;;;;120.90;23.70;;;1.10;99.90;;;;;;4935046;29;20130;-88
2022/01/24 04:54:55;;;;;;;57.65;21.75;;;1.20;99.90;;;;;;4935978;29;20036;-89
2022/01/24 04:57:25;;;;;;;79.95;23.33;;;1.10;99.90;;;;;;4935228;29;20035;-88
2022/01/24 04:59:55;;;;;;;67.38;21.58;;;1.00;99.90;;;;;;4928695;29;20038;-88
2022/01/24 05:02:22;;;;;;;60.50;20.90;;;1.30;99.90;;;;;;4935858;29;20027;-88
2022/01/24 05:04:49;;;;;;;57.55;21.33;;;0.70;99.90;;;;;;4933515;29;20036;-88
2022/01/24 05:07:15;;;;;;;88.10;23.08;;;0.90;99.90;;;;;;4944537;29;20023;-88
2022/01/24 05:09:46;;;;;;;66.70;23.23;;;0.90;99.90;;;;;;4937449;29;20054;-88
2022/01/24 05:12:20;;;;;;;131.23;23.63;;;0.90;99.90;;;;;;4936673;29;20564;-88
2022/01/24 05:25:43;;;;;;;106.82;22.08;;;0.80;99.90;;;;;;4936156;29;20059;-88
2022/01/24 05:28:08;;;;;;;74.57;20.70;;;0.90;99.90;;;;;;4935534;29;20036;-88
2022/01/24 05:30:34;;;;;;;62.58;20.88;;;0.90;99.90;;;;;;4937050;29;20035;-88
2022/01/24 05:32:59;;;;;;;47.70;22.30;;;0.80;99.90;;;;;;4953607;29;20423;-88
2022/01/24 05:35:25;;;;;;;57.08;21.90;;;0.80;99.90;;;;;;4938836;29;20039;-89
2022/01/24 05:37:51;;;;;;;135.30;24.70;;;0.70;99.90;;;;;;4935033;29;20059;-88
2022/01/24 05:40:16;;;;;;;64.18;23.70;;;0.30;99.90;;;;;;4936145;29;20036;-88
2022/01/24 05:42:42;;;;;;;148.68;24.98;;;0.70;99.90;;;;;;4934756;29;20525;-88
2022/01/24 05:45:08;;;;;;;46.38;22.17;;;0.70;99.90;;;;;;4936546;29;20043;-88
2022/01/24 05:47:33;;;;;;;52.92;23.65;;;0.80;99.90;;;;;;4935162;29;20024;-88
2022/01/24 05:49:59;;;;;;;72.65;22.60;;;0.70;99.90;;;;;;4936008;29;20027;-88
2022/01/24 05:52:25;;;;;;;52.58;21.50;;;0.70;99.90;;;;;;4934865;29;20035;-88
2022/01/24 05:54:51;;;;;;;44.95;22.40;;;1.00;99.90;;;;;;4936303;29;20449;-88
2022/01/24 05:57:17;;;;;;;89.35;21.88;;;0.70;99.90;;;;;;4936865;29;20042;-89
2022/01/24 05:59:43;;;;;;;67.80;21.27;;;1.20;99.90;;;;;;4935818;29;20544;-88
2022/01/24 06:02:09;;;;;;;50.28;22.17;;;0.60;99.90;;;;;;4934947;29;20031;-89
2022/01/24 06:04:34;;;;;;;76.45;22.00;;;0.60;99.90;;;;;;4951167;29;20032;-89
2022/01/24 06:07:00;;;;;;;52.70;24.00;;;0.50;99.90;;;;;;4935988;29;20027;-88
2022/01/24 06:09:26;;;;;;;50.75;24.45;;;0.50;99.90;;;;;;4935072;29;20036;-89
2022/01/24 06:11:52;;;;;;;72.22;23.05;;;0.50;99.90;;;;;;4935553;29;20044;-88
2022/01/24 06:14:18;;;;;;;118.22;22.25;;;0.40;99.90;;;;;;4937817;29;20075;-88
2022/01/24 06:16:43;;;;;;;49.88;22.52;;;0.70;99.90;;;;;;4939198;29;20118;-88
2022/01/24 06:19:09;;;;;;;56.40;23.75;;;0.40;99.90;;;;;;4940018;29;20032;-89
2022/01/24 06:21:35;;;;;;;60.33;25.30;;;0.40;99.90;;;;;;4939765;29;20035;-88
2022/01/24 06:24:00;;;;;;;62.78;25.85;;;0.40;99.90;;;;;;4939597;29;20392;-88
2022/01/24 06:26:26;;;;;;;52.25;24.65;;;0.40;99.90;;;;;;4957379;29;20031;-88
2022/01/24 06:28:52;;;;;;;52.72;23.27;;;0.60;99.90;;;;;;4946238;29;20471;-88
2022/01/24 06:31:19;;;;;;;77.78;26.60;;;0.10;99.90;;;;;;4939795;29;20091;-88
2022/01/24 06:33:44;;;;;;;44.38;23.23;;;0.10;99.90;;;;;;4938598;29;20042;-88
2022/01/24 06:36:10;;;;;;;44.95;22.85;;;0.10;99.90;;;;;;4938657;29;20400;-88
2022/01/24 06:38:36;;;;;;;47.22;23.73;;;0.10;99.90;;;;;;4938760;29;20087;-89
2022/01/24 06:41:01;;;;;;;44.05;24.58;;;0.10;99.90;;;;;;4938759;29;20042;-89
2022/01/24 06:43:27;;;;;;;40.78;22.80;;;0.10;99.90;;;;;;4937688;29;20469;-89
2022/01/24 06:45:53;;;;;;;42.13;23.23;;;0.10;99.90;;;;;;4937648;29;20024;-88
2022/01/24 06:48:18;;;;;;;34.92;20.20;;;0.70;99.90;;;;;;4939331;29;20526;-91
2022/01/24 06:50:44;;;;;;;37.38;19.77;;;0.40;99.90;;;;;;4937357;29;20036;-91
2022/01/24 06:53:10;;;;;;;38.72;21.27;;;-0.10;99.90;;;;;;4938482;29;20036;-88
2022/01/24 06:55:36;;;;;;;38.97;22.27;;;-0.30;99.90;;;;;;4937651;29;20034;-90
2022/01/24 06:58:02;;;;;;;40.63;21.75;;;-0.40;99.90;;;;;;4937808;29;20040;-91
2022/01/24 07:00:30;;;;;;;37.83;21.30;;;-0.30;99.90;;;;;;4938887;29;20023;-89
2022/01/24 07:02:57;;;;;;;40.20;22.25;;;0.10;99.90;;;;;;4938710;29;20043;-88
2022/01/24 07:05:23;;;;;;;39.53;21.83;;;-0.20;99.90;;;;;;4938089;29;20027;-87
2022/01/24 07:07:49;;;;;;;40.85;22.25;;;-0.10;99.90;;;;;;4938273;29;20028;-88
2022/01/24 07:10:15;;;;;;;43.55;23.35;;;-0.40;99.90;;;;;;4938561;29;20116;-94
2022/01/24 07:12:41;;;;;;;42.35;22.65;;;-0.30;99.90;;;;;;4941303;29;20054;-95
2022/01/24 07:15:14;;;;;;;42.88;24.63;;;-0.30;99.90;;;;;;4942240;29;20488;-96
2022/01/24 07:20:11;;;;;;;49.60;28.42;;;-0.20;99.90;;;;;;4940798;29;20031;-96
2022/01/24 07:22:37;;;;;;;47.13;25.80;;;-0.10;99.90;;;;;;4941838;29;20039;-96
2022/01/24 07:25:03;;;;;;;43.25;24.92;;;0.40;99.90;;;;;;4940733;29;20063;-95
2022/01/24 07:27:29;;;;;;;41.53;23.75;;;0.10;99.90;;;;;;4938657;29;20035;-95
2022/01/24 07:29:55;;;;;;;41.95;24.05;;;0.10;99.90;;;;;;4939223;29;20499;-95
2022/01/24 07:32:20;;;;;;;41.15;23.27;;;0.20;99.90;;;;;;4938045;29;20047;-94
2022/01/24 07:34:46;;;;;;;41.80;24.45;;;0.60;99.90;;;;;;4937463;29;20385;-89
2022/01/24 07:37:13;;;;;;;41.25;24.08;;;0.20;99.90;;;;;;4938243;29;20044;-93
2022/01/24 07:39:38;;;;;;;42.83;24.55;;;0.30;99.90;;;;;;4938220;29;20032;-92
2022/01/24 07:42:15;;;;;;;44.50;24.27;;;0.10;99.90;;;;;;4938078;29;20386;-92
2022/01/24 07:44:40;;;;;;;39.65;24.23;;;0.30;99.90;;;;;;4938466;29;20035;-93
2022/01/24 07:47:06;;;;;;;43.63;25.10;;;0.30;99.90;;;;;;4937641;29;20469;-93
2022/01/24 07:49:32;;;;;;;43.58;25.58;;;0.50;99.90;;;;;;4938242;29;20028;-92
2022/01/24 07:51:58;;;;;;;45.67;24.75;;;0.60;99.90;;;;;;4936429;29;20134;-91
2022/01/24 07:54:23;;;;;;;42.97;25.48;;;0.70;99.90;;;;;;4936760;29;20059;-92
2022/01/24 07:56:49;;;;;;;44.40;25.42;;;1.10;99.90;;;;;;4938018;29;20027;-89
2022/01/24 07:59:15;;;;;;;36.58;22.65;;;2.00;99.90;;;;;;4936165;29;20028;-92
2022/01/24 08:01:42;;;;;;;42.08;24.25;;;2.40;99.90;;;;;;4937529;29;20477;-92
2022/01/24 08:04:08;;;;;;;41.05;24.50;;;2.50;99.90;;;;;;4937322;29;20036;-91
2022/01/24 08:06:34;;;;;;;42.67;25.52;;;3.00;99.90;;;;;;4937309;29;20031;-91
2022/01/24 08:08:59;;;;;;;41.25;24.20;;;3.90;99.90;;;;;;4935683;29;20171;-95
2022/01/24 08:11:25;;;;;;;38.92;23.40;;;4.30;99.90;;;;;;4938600;29;20040;-93
2022/01/24 08:13:53;;;;;;;41.90;23.52;;;4.90;99.90;;;;;;4936610;29;20275;-82
2022/01/24 08:16:19;;;;;;;36.22;22.52;;;5.40;99.90;;;;;;4935855;29;20405;-83
2022/01/24 08:18:50;;;;;;;37.47;22.50;;;5.80;99.90;;;;;;4935413;29;20038;-87
2022/01/24 08:21:15;;;;;;;34.13;22.15;;;6.80;99.90;;;;;;4931870;29;20027;-87
2022/01/24 08:23:41;;;;;;;38.42;23.75;;;8.40;99.90;;;;;;4935788;29;20127;-88
2022/01/24 08:26:07;;;;;;;32.80;21.75;;;9.80;99.90;;;;;;4935317;29;20460;-88
2022/01/24 08:28:32;;;;;;;35.75;22.17;;;10.90;99.90;;;;;;4934356;29;20025;-85
2022/01/24 08:30:58;;;;;;;40.13;24.08;;;12.10;99.90;;;;;;4934966;29;20051;-86
2022/01/24 08:33:24;;;;;;;39.65;25.58;;;13.00;99.90;;;;;;4934799;29;20028;-87
2022/01/24 08:35:51;;;;;;;43.58;26.65;;;14.10;99.90;;;;;;4935955;29;20040;-86
2022/01/24 08:38:17;;;;;;;42.83;25.65;;;14.40;99.90;;;;;;4934281;29;20038;-92
2022/01/24 08:40:46;;;;;;;42.75;26.58;;;15.00;99.90;;;;;;4933619;29;20031;-88
2022/01/24 08:43:11;;;;;;;46.95;27.35;;;15.60;99.90;;;;;;4935152;29;20047;-87
2022/01/24 08:48:08;;;;;;;50.00;30.00;;;15.60;99.90;;;;;;4935727;29;20531;-86
2022/01/24 08:50:35;;;;;;;50.15;30.30;;;15.10;99.90;;;;;;4934149;29;20126;-86
2022/01/24 08:53:03;;;;;;;45.60;29.13;;;14.80;99.90;;;;;;4934867;29;20046;-87
2022/01/24 08:55:30;;;;;;;44.88;28.30;;;13.20;99.90;;;;;;4934958;29;20123;-86
2022/01/24 08:57:57;;;;;;;58.28;33.60;;;12.20;99.90;;;;;;4933331;29;20024;-87
2022/01/24 09:00:23;;;;;;;47.08;30.65;;;11.80;99.90;;;;;;4934929;29;20066;-85
2022/01/24 09:02:50;;;;;;;50.97;31.13;;;11.30;99.90;;;;;;4933533;29;20381;-84
2022/01/24 09:05:17;;;;;;;46.63;29.55;;;11.40;99.90;;;;;;4934328;29;20039;-86
2022/01/24 09:07:44;;;;;;;44.50;28.42;;;11.80;99.90;;;;;;4933499;29;20066;-85
2022/01/24 09:10:11;;;;;;;47.17;28.85;;;14.20;99.90;;;;;;4933033;29;20523;-85
2022/01/24 09:12:37;;;;;;;40.92;26.63;;;15.70;99.90;;;;;;4934297;29;20028;-85
2022/01/24 09:15:03;;;;;;;38.55;26.52;;;16.50;99.90;;;;;;4935198;29;20032;-85
2022/01/24 09:17:28;;;;;;;41.33;26.50;;;17.20;99.90;;;;;;4932903;29;20051;-86
2022/01/24 09:19:54;;;;;;;40.20;27.02;;;17.60;99.90;;;;;;4934145;29;20031;-86
2022/01/24 09:22:19;;;;;;;37.83;25.80;;;17.30;99.90;;;;;;4934236;29;20027;-89
2022/01/24 09:24:45;;;;;;;39.53;25.40;;;17.70;99.90;;;;;;4934583;29;20024;-86
2022/01/24 09:27:11;;;;;;;43.08;26.55;;;16.40;99.90;;;;;;4935272;29;20055;-89
2022/01/24 09:29:36;;;;;;;49.33;26.50;;;15.10;99.90;;;;;;4932370;29;20118;-88
2022/01/24 09:32:03;;;;;;;42.92;26.98;;;12.70;99.90;;;;;;4932667;29;20067;-87
2022/01/24 09:34:28;;;;;;;100.57;30.85;;;11.20;99.90;;;;;;4934421;29;20032;-89
2022/01/24 09:36:55;;;;;;;39.65;28.05;;;10.30;99.90;;;;;;4934582;29;22219;-93
2022/01/24 09:39:20;;;;;;;39.53;26.17;;;10.10;99.90;;;;;;4935111;29;20389;-88
2022/01/24 09:41:46;;;;;;;36.75;26.40;;;12.00;99.90;;;;;;4934609;29;20055;-90
2022/01/24 09:44:12;;;;;;;34.20;24.85;;;12.90;99.90;;;;;;4934517;29;20412;-93
2022/01/24 09:46:40;;;;;;;39.15;25.00;;;16.40;99.90;;;;;;4934496;29;20032;-89
2022/01/24 09:49:07;;;;;;;39.08;26.00;;;17.80;99.90;;;;;;4934727;29;20453;-90
2022/01/24 09:51:34;;;;;;;42.05;27.60;;;17.30;99.90;;;;;;4933917;29;20126;-95
2022/01/24 09:54:03;;;;;;;39.08;23.83;;;19.30;99.90;;;;;;4935988;29;20485;-91
2022/01/24 09:56:29;;;;;;;34.15;23.70;;;19.90;99.90;;;;;;4936070;29;20098;-96
2022/01/24 09:58:55;;;;;;;32.05;23.23;;;19.20;99.90;;;;;;4934810;29;20568;-96
2022/01/24 10:01:21;;;;;;;35.05;25.42;;;18.80;99.90;;;;;;4935177;29;20393;-95
2022/01/24 10:04:09;;;;;;;31.63;23.77;;;18.10;99.90;;;;;;4935890;29;20031;-93
2022/01/24 10:06:57;;;;;;;30.73;23.33;;;18.90;99.90;;;;;;4948266;29;20374;-95
2022/01/24 10:09:43;;;;;;;33.85;25.17;;;20.10;99.90;;;;;;4930957;29;20028;-88
2022/01/24 10:17:39;;;;;;;29.85;23.33;;;22.20;99.90;;;;;;4933477;29;20042;-84
2022/01/24 10:20:33;;;;;;;32.40;24.10;;;22.10;99.90;;;;;;4934013;29;20039;-86
2022/01/24 10:23:01;;;;;;;31.92;22.42;;;21.90;99.90;;;;;;4933658;29;20485;-87
2022/01/24 10:25:27;;;;;;;28.77;22.33;;;21.80;99.90;;;;;;4933605;29;20023;-87
2022/01/24 10:28:01;;;;;;;29.70;23.02;;;22.10;99.90;;;;;;4932883;29;20506;-86
2022/01/24 10:30:28;;;;;;;27.42;21.30;;;21.60;99.90;;;;;;4933664;29;20067;-86
2022/01/24 10:32:55;;;;;;;31.85;22.92;;;22.00;99.90;;;;;;4933695;29;20392;-87
2022/01/24 10:35:37;;;;;;;25.35;20.75;;;22.60;99.90;;;;;;4933878;29;20067;-87
2022/01/24 10:38:24;;;;;;;26.02;22.15;;;22.40;99.90;;;;;;4933617;29;20036;-86
2022/01/24 10:41:06;;;;;;;27.92;21.75;;;23.10;99.90;;;;;;4933899;29;20023;-86
2022/01/24 10:43:32;;;;;;;28.15;21.40;;;24.00;99.90;;;;;;4932763;29;20059;-87
2022/01/24 10:45:58;;;;;;;27.38;22.08;;;24.50;99.90;;;;;;4933301;29;20110;-87
2022/01/24 10:48:32;;;;;;;27.17;21.45;;;24.30;99.90;;;;;;4934061;29;20102;-87
2022/01/24 10:51:18;;;;;;;27.50;20.92;;;24.70;99.90;;;;;;4933984;29;20047;-86
2022/01/24 10:53:47;;;;;;;26.40;22.20;;;25.20;99.90;;;;;;4933137;29;20032;-86
2022/01/24 10:56:33;;;;;;;27.08;21.88;;;24.60;99.90;;;;;;4934999;29;20094;-85
2022/01/24 10:59:11;;;;;;;25.55;21.92;;;24.30;99.90;;;;;;4936405;29;20059;-85
2022/01/24 11:01:37;;;;;;;29.00;23.45;;;25.20;99.90;;;;;;4937423;29;20401;-88
2022/01/24 11:04:06;;;;;;;28.20;23.13;;;24.90;99.90;;;;;;4936678;29;20406;-87
2022/01/24 11:06:38;;;;;;;26.17;22.77;;;25.60;99.90;;;;;;4936997;29;20038;-87
2022/01/24 11:09:35;;;;;;;27.35;23.92;;;25.50;99.90;;;;;;4936113;29;20031;-89
2022/01/24 11:12:11;;;;;;;27.83;24.77;;;24.70;99.90;;;;;;4935133;29;20112;-87
2022/01/24 11:14:42;;;;;;;30.27;26.10;;;24.40;99.90;;;;;;4935999;29;20118;-85
2022/01/24 11:17:12;;;;;;;31.33;25.70;;;25.40;99.90;;;;;;4936500;29;20060;-84
2022/01/24 11:19:50;;;;;;;32.33;26.42;;;25.50;99.90;;;;;;4936922;29;20054;-86
2022/01/24 11:22:20;;;;;;;32.72;25.23;;;25.60;99.90;;;;;;4936720;29;20123;-86
2022/01/24 11:24:54;;;;;;;29.52;25.80;;;25.10;99.90;;;;;;4936780;29;20445;-86
2022/01/24 11:27:21;;;;;;;32.22;26.30;;;25.40;99.90;;;;;;4933815;29;20027;-85
2022/01/24 11:29:49;;;;;;;29.83;25.00;;;26.30;99.90;;;;;;4936344;29;20393;-91
2022/01/24 11:32:27;;;;;;;30.83;26.60;;;25.70;99.90;;;;;;4935102;29;20527;-88
2022/01/24 11:34:56;;;;;;;29.73;25.42;;;26.00;99.90;;;;;;4936181;29;20074;-89
2022/01/24 11:37:37;;;;;;;29.88;24.67;;;26.00;99.90;;;;;;4934582;29;20091;-89
2022/01/24 11:40:07;;;;;;;30.90;25.95;;;25.80;99.90;;;;;;4935937;29;20097;-88
2022/01/24 11:42:35;;;;;;;29.30;25.85;;;26.40;99.90;;;;;;4935847;29;20051;-88
2022/01/24 11:45:11;;;;;;;33.67;26.60;;;25.20;99.90;;;;;;4934649;29;20441;-87
2022/01/24 11:47:38;;;;;;;30.83;27.50;;;26.20;99.90;;;;;;4936135;29;20024;-90
2022/01/24 11:50:36;;;;;;;32.35;26.98;;;25.70;99.90;;;;;;4931004;29;20087;-93
2022/01/24 11:53:28;;;;;;;32.58;26.52;;;25.80;99.90;;;;;;4936165;29;20098;-89
2022/01/24 11:55:55;;;;;;;30.40;24.83;;;25.80;99.90;;;;;;4935847;29;20036;-86
2022/01/24 11:58:28;;;;;;;28.77;25.67;;;25.30;99.90;;;;;;4935450;29;20038;-88
2022/01/24 12:00:55;;;;;;;32.45;25.05;;;26.00;99.90;;;;;;4921187;29;20274;-85
2022/01/24 12:03:26;;;;;;;29.73;25.63;;;25.30;99.90;;;;;;4936311;29;20020;-86
2022/01/24 12:05:56;;;;;;;29.42;25.50;;;25.80;99.90;;;;;;4936319;29;20038;-91
2022/01/24 12:08:34;;;;;;;28.58;25.00;;;25.20;99.90;;;;;;4934849;29;20027;-92
2022/01/24 12:11:20;;;;;;;29.60;25.95;;;25.30;99.90;;;;;;4936034;29;20064;-87
2022/01/24 12:13:49;;;;;;;30.33;25.38;;;24.70;99.90;;;;;;4935675;29;20119;-87
2022/01/24 12:16:16;;;;;;;30.20;26.05;;;25.50;99.90;;;;;;4936133;29;20032;-87
2022/01/24 12:18:42;;;;;;;29.27;25.08;;;24.70;99.90;;;;;;4935658;29;20470;-88
2022/01/24 12:21:22;;;;;;;27.65;24.77;;;25.60;99.90;;;;;;4936191;29;20036;-87
2022/01/24 12:24:00;;;;;;;29.40;26.08;;;26.10;99.90;;;;;;4936132;29;20042;-88
2022/01/24 12:26:53;;;;;;;28.83;25.35;;;26.20;99.90;;;;;;4935716;29;20024;-88
2022/01/24 12:29:26;;;;;;;29.95;25.77;;;25.90;99.90;;;;;;4933408;29;20138;-88
2022/01/24 12:31:54;;;;;;;29.45;25.42;;;26.50;99.90;;;;;;4935171;29;20036;-88
2022/01/24 12:34:22;;;;;;;27.17;24.35;;;25.90;99.90;;;;;;4935932;29;20023;-88
2022/01/24 12:37:00;;;;;;;27.13;24.33;;;24.80;99.90;;;;;;4935726;29;20035;-87
2022/01/24 12:39:50;;;;;;;28.27;25.38;;;25.60;99.90;;;;;;4932913;29;20032;-88
2022/01/24 12:42:31;;;;;;;26.73;24.00;;;25.60;99.90;;;;;;4933946;29;20191;-88
2022/01/24 12:47:42;;;;;;;27.20;24.50;;;24.20;99.90;;;;;;4935434;29;20093;-88
2022/01/24 12:50:10;;;;;;;27.65;24.75;;;25.10;99.90;;;;;;4934808;29;20059;-88
2022/01/24 12:52:36;;;;;;;26.90;24.20;;;25.20;99.90;;;;;;4935010;29;20036;-88
2022/01/24 12:55:03;;;;;;;28.52;24.70;;;24.90;99.90;;;;;;4934947;29;20028;-88
2022/01/24 12:57:37;;;;;;;27.77;24.88;;;25.10;99.90;;;;;;4935094;29;20098;-87
2022/01/24 13:00:10;;;;;;;27.27;24.38;;;24.90;99.90;;;;;;4933796;29;20036;-87
2022/01/24 13:02:38;;;;;;;27.27;24.38;;;24.40;99.90;;;;;;4934592;29;20038;-88
2022/01/24 13:05:10;;;;;;;25.73;23.13;;;24.40;99.90;;;;;;4935189;29;20047;-88
2022/01/24 13:07:38;;;;;;;28.55;24.23;;;24.30;99.90;;;;;;4933958;29;20040;-88
2022/01/24 13:10:15;;;;;;;27.67;24.90;;;23.90;99.90;;;;;;4933161;29;20378;-88
2022/01/24 13:12:43;;;;;;;27.88;24.98;;;24.50;99.90;;;;;;4934681;29;20539;-87
2022/01/24 13:20:21;;;;;;;28.52;25.15;;;23.60;99.90;;;;;;4935287;29;20548;-88
2022/01/24 13:21:08;;;;;;;28.90;24.70;;;24.00;99.90;;;;;;4934843;29;20508;-88
2022/01/24 13:23:34;;;;;;;29.13;25.42;;;23.20;99.90;;;;;;4934381;29;20091;-88
2022/01/24 13:26:00;;;;;;;28.83;25.20;;;23.40;99.90;;;;;;4933708;29;20066;-88
2022/01/24 13:28:25;;;;;;;28.80;25.45;;;23.70;99.90;;;;;;4933661;29;20074;-87
2022/01/24 13:31:04;;;;;;;28.17;25.10;;;23.90;99.90;;;;;;4934361;29;20035;-88
2022/01/24 13:33:32;;;;;;;28.20;24.65;;;24.00;99.90;;;;;;4932179;29;20031;-87
2022/01/24 13:36:08;;;;;;;27.58;24.05;;;24.10;99.90;;;;;;4934614;29;20393;-87
2022/01/24 13:38:35;;;;;;;30.40;26.48;;;23.30;99.90;;;;;;4934263;29;20409;-87
2022/01/24 13:41:07;;;;;;;30.00;26.50;;;23.20;99.90;;;;;;4934734;29;20032;-87
2022/01/24 13:43:44;;;;;;;27.05;24.15;;;23.50;99.90;;;;;;4934083;29;20539;-88
2022/01/24 13:46:13;;;;;;;28.90;25.90;;;23.50;99.90;;;;;;4934084;29;20024;-88
2022/01/24 13:48:44;;;;;;;29.10;25.98;;;22.90;99.90;;;;;;4934650;29;20518;-88
2022/01/24 13:51:12;;;;;;;26.95;24.15;;;23.30;99.90;;;;;;4934274;29;20421;-87
2022/01/24 13:53:46;;;;;;;28.45;24.40;;;22.50;99.90;;;;;;4933532;29;20035;-87
2022/01/24 13:56:22;;;;;;;27.30;24.40;;;23.00;99.90;;;;;;4933680;29;20035;-88
2022/01/24 13:59:03;;;;;;;28.50;25.45;;;22.00;99.90;;;;;;4932466;29;20118;-87
2022/01/24 14:01:29;;;;;;;28.70;25.58;;;22.30;99.90;;;;;;4933235;29;20039;-88
2022/01/24 14:04:00;;;;;;;27.50;24.58;;;21.80;99.90;;;;;;4934000;29;20035;-88
2022/01/24 14:06:29;;;;;;;30.05;25.38;;;22.20;99.90;;;;;;4934202;29;20418;-87
2022/01/24 14:09:08;;;;;;;28.13;25.23;;;22.10;99.90;;;;;;4933102;29;20034;-87
2022/01/24 14:11:47;;;;;;;28.40;25.30;;;22.20;99.90;;;;;;4934027;29;20453;-87
2022/01/24 14:14:18;;;;;;;29.90;25.05;;;22.40;99.90;;;;;;4932338;29;20023;-88
2022/01/24 14:19:13;;;;;;;27.92;24.90;;;22.00;99.90;;;;;;4934234;29;20039;-87
2022/01/24 14:21:38;;;;;;;30.30;25.25;;;21.10;99.90;;;;;;4933781;29;20055;-88
2022/01/24 14:24:07;;;;;;;28.95;25.83;;;20.90;99.90;;;;;;4934083;29;20476;-87
2022/01/24 14:26:34;;;;;;;32.10;26.10;;;21.30;99.90;;;;;;4933860;29;20035;-87
2022/01/24 14:29:08;;;;;;;28.63;25.63;;;21.00;99.90;;;;;;4933969;29;20100;-87
2022/01/24 14:31:33;;;;;;;33.65;29.05;;;20.70;99.90;;;;;;4933987;29;20526;-87
2022/01/24 14:34:03;;;;;;;32.40;25.38;;;20.80;99.90;;;;;;4936778;29;20031;-87
2022/01/24 14:36:28;;;;;;;31.65;26.45;;;20.10;99.90;;;;;;4937777;29;20039;-88
2022/01/24 14:39:09;;;;;;;29.35;25.17;;;20.50;99.90;;;;;;4937420;29;20035;-88